<?xml version="1.0" encoding="UTF-8"?>
<gpx xmlns="http://www.topografix.com/GPX/1/1" xmlns:gpsies="http://www.gpsies.com/GPX/1/0" creator="GPSies http://www.gpsies.com - zuba-kesalon" version="1.1" xmlns:xsi="http://www.w3.org/2001/XMLSchema-instance" xsi:schemaLocation="http://www.topografix.com/GPX/1/1 http://www.topografix.com/GPX/1/1/gpx.xsd http://www.gpsies.com/GPX/1/0 http://www.gpsies.com/gpsies.xsd">
  <metadata>
    <name>zuba-kesalon</name>
    <author>
      <name>igor968</name>
      <link href="http://www.gpsies.com/mapUser.do?username=igor968">
        <text>igor968 on GPSies.com</text>
        <type>GPSiesUserOnWeb</type>
      </link>
    </author>
    <link href="http://www.gpsies.com/map.do?fileId=srjkopegjjltxsow">
      <text>zuba-kesalon on GPSies.com</text>
      <type>trackOnWeb</type>
    </link>
    <time>2016-10-26T17:51:55Z</time>
    <extensions>
      <gpsies:property>round trip</gpsies:property>
      <gpsies:trackLengthMeter>31486.628694640607</gpsies:trackLengthMeter>
      <gpsies:totalAscentMeter>608.0</gpsies:totalAscentMeter>
      <gpsies:totalDescentMeter>608.0</gpsies:totalDescentMeter>
      <gpsies:minHeightMeter>267.0</gpsies:minHeightMeter>
      <gpsies:maxHeightMeter>699.0</gpsies:maxHeightMeter>
    </extensions>
  </metadata>
  <trk>
    <name>zuba-kesalon on GPSies.com</name>
    <link href="http://www.gpsies.com/map.do?fileId=srjkopegjjltxsow">
      <type>trackOnWeb</type>
    </link>
    <link href="http://www.gpsies.com/charts/sr/map/srjkopegjjltxsow_map.png">
      <type>elevationChartUrlMap</type>
    </link>
    <link href="http://www.gpsies.com/charts/sr/mapThumb/srjkopegjjltxsow_mapThumb.png">
      <type>elevationChartUrlMapThumb</type>
    </link>
    <link href="http://www.gpsies.com/charts/sr/tab/srjkopegjjltxsow_tab.png">
      <type>elevationChartUrlTab</type>
    </link>
    <trkseg>
      <trkpt lat="31.77767300" lon="35.01591100">
        <ele>274.00000</ele>
        <time>2010-01-01T00:00:00Z</time>
      </trkpt>
      <trkpt lat="31.77815700" lon="35.01578800">
        <ele>267.00000</ele>
        <time>2010-01-01T00:00:19Z</time>
      </trkpt>
      <trkpt lat="31.77853000" lon="35.01607800">
        <ele>269.00000</ele>
        <time>2010-01-01T00:00:37Z</time>
      </trkpt>
      <trkpt lat="31.77856700" lon="35.01653900">
        <ele>273.00000</ele>
        <time>2010-01-01T00:00:53Z</time>
      </trkpt>
      <trkpt lat="31.77867200" lon="35.01681300">
        <ele>276.00000</ele>
        <time>2010-01-01T00:01:03Z</time>
      </trkpt>
      <trkpt lat="31.77888200" lon="35.01719300">
        <ele>278.00000</ele>
        <time>2010-01-01T00:01:19Z</time>
      </trkpt>
      <trkpt lat="31.77910500" lon="35.01753700">
        <ele>277.00000</ele>
        <time>2010-01-01T00:01:33Z</time>
      </trkpt>
      <trkpt lat="31.77941500" lon="35.01772500">
        <ele>282.00000</ele>
        <time>2010-01-01T00:01:47Z</time>
      </trkpt>
      <trkpt lat="31.77991700" lon="35.01788500">
        <ele>285.00000</ele>
        <time>2010-01-01T00:02:08Z</time>
      </trkpt>
      <trkpt lat="31.78007200" lon="35.01796100">
        <ele>286.00000</ele>
        <time>2010-01-01T00:02:15Z</time>
      </trkpt>
      <trkpt lat="31.78053200" lon="35.01893700">
        <ele>288.00000</ele>
        <time>2010-01-01T00:02:53Z</time>
      </trkpt>
      <trkpt lat="31.78062800" lon="35.01952700">
        <ele>288.00000</ele>
        <time>2010-01-01T00:03:13Z</time>
      </trkpt>
      <trkpt lat="31.78056400" lon="35.01995600">
        <ele>290.00000</ele>
        <time>2010-01-01T00:03:28Z</time>
      </trkpt>
      <trkpt lat="31.77988000" lon="35.02122200">
        <ele>296.00000</ele>
        <time>2010-01-01T00:04:19Z</time>
      </trkpt>
      <trkpt lat="31.77936000" lon="35.02218200">
        <ele>302.00000</ele>
        <time>2010-01-01T00:04:58Z</time>
      </trkpt>
      <trkpt lat="31.77867200" lon="35.02380800">
        <ele>307.00000</ele>
        <time>2010-01-01T00:06:00Z</time>
      </trkpt>
      <trkpt lat="31.77804700" lon="35.02467200">
        <ele>310.00000</ele>
        <time>2010-01-01T00:06:38Z</time>
      </trkpt>
      <trkpt lat="31.77771400" lon="35.02587900">
        <ele>311.00000</ele>
        <time>2010-01-01T00:07:21Z</time>
      </trkpt>
      <trkpt lat="31.77732200" lon="35.02623800">
        <ele>316.00000</ele>
        <time>2010-01-01T00:07:41Z</time>
      </trkpt>
      <trkpt lat="31.77718500" lon="35.02643600">
        <ele>321.00000</ele>
        <time>2010-01-01T00:07:50Z</time>
      </trkpt>
      <trkpt lat="31.77718500" lon="35.02663500">
        <ele>321.00000</ele>
        <time>2010-01-01T00:07:57Z</time>
      </trkpt>
      <trkpt lat="31.77726700" lon="35.02689800">
        <ele>324.00000</ele>
        <time>2010-01-01T00:08:06Z</time>
      </trkpt>
      <trkpt lat="31.77751400" lon="35.02714500">
        <ele>324.00000</ele>
        <time>2010-01-01T00:08:19Z</time>
      </trkpt>
      <trkpt lat="31.77814300" lon="35.02743400">
        <ele>331.00000</ele>
        <time>2010-01-01T00:08:46Z</time>
      </trkpt>
      <trkpt lat="31.77825200" lon="35.02757400">
        <ele>330.00000</ele>
        <time>2010-01-01T00:08:53Z</time>
      </trkpt>
      <trkpt lat="31.77817000" lon="35.03005700">
        <ele>343.00000</ele>
        <time>2010-01-01T00:10:17Z</time>
      </trkpt>
      <trkpt lat="31.77781900" lon="35.03072800">
        <ele>347.00000</ele>
        <time>2010-01-01T00:10:44Z</time>
      </trkpt>
      <trkpt lat="31.77748200" lon="35.03102800">
        <ele>341.00000</ele>
        <time>2010-01-01T00:11:01Z</time>
      </trkpt>
      <trkpt lat="31.77732700" lon="35.03121600">
        <ele>344.00000</ele>
        <time>2010-01-01T00:11:10Z</time>
      </trkpt>
      <trkpt lat="31.77705300" lon="35.03195100">
        <ele>345.00000</ele>
        <time>2010-01-01T00:11:37Z</time>
      </trkpt>
      <trkpt lat="31.77781400" lon="35.03274000">
        <ele>350.00000</ele>
        <time>2010-01-01T00:12:18Z</time>
      </trkpt>
      <trkpt lat="31.77826100" lon="35.03355000">
        <ele>351.00000</ele>
        <time>2010-01-01T00:12:51Z</time>
      </trkpt>
      <trkpt lat="31.77851700" lon="35.03411300">
        <ele>354.00000</ele>
        <time>2010-01-01T00:13:13Z</time>
      </trkpt>
      <trkpt lat="31.77885400" lon="35.03439200">
        <ele>355.00000</ele>
        <time>2010-01-01T00:13:29Z</time>
      </trkpt>
      <trkpt lat="31.77926900" lon="35.03474100">
        <ele>353.00000</ele>
        <time>2010-01-01T00:13:49Z</time>
      </trkpt>
      <trkpt lat="31.77953800" lon="35.03499300">
        <ele>354.00000</ele>
        <time>2010-01-01T00:14:03Z</time>
      </trkpt>
      <trkpt lat="31.77968400" lon="35.03540600">
        <ele>357.00000</ele>
        <time>2010-01-01T00:14:18Z</time>
      </trkpt>
      <trkpt lat="31.77967500" lon="35.03562600">
        <ele>358.00000</ele>
        <time>2010-01-01T00:14:26Z</time>
      </trkpt>
      <trkpt lat="31.77963900" lon="35.03629100">
        <ele>364.00000</ele>
        <time>2010-01-01T00:14:49Z</time>
      </trkpt>
      <trkpt lat="31.77961600" lon="35.03679500">
        <ele>370.00000</ele>
        <time>2010-01-01T00:15:06Z</time>
      </trkpt>
      <trkpt lat="31.77972100" lon="35.03726700">
        <ele>370.00000</ele>
        <time>2010-01-01T00:15:22Z</time>
      </trkpt>
      <trkpt lat="31.77986700" lon="35.03773400">
        <ele>368.00000</ele>
        <time>2010-01-01T00:15:39Z</time>
      </trkpt>
      <trkpt lat="31.78014900" lon="35.03819000">
        <ele>369.00000</ele>
        <time>2010-01-01T00:15:58Z</time>
      </trkpt>
      <trkpt lat="31.78106100" lon="35.03937000">
        <ele>374.00000</ele>
        <time>2010-01-01T00:16:53Z</time>
      </trkpt>
      <trkpt lat="31.78144400" lon="35.03967000">
        <ele>379.00000</ele>
        <time>2010-01-01T00:17:11Z</time>
      </trkpt>
      <trkpt lat="31.78219700" lon="35.04026100">
        <ele>386.00000</ele>
        <time>2010-01-01T00:17:47Z</time>
      </trkpt>
      <trkpt lat="31.78313200" lon="35.04041100">
        <ele>381.00000</ele>
        <time>2010-01-01T00:18:25Z</time>
      </trkpt>
      <trkpt lat="31.78376100" lon="35.04070000">
        <ele>382.00000</ele>
        <time>2010-01-01T00:18:52Z</time>
      </trkpt>
      <trkpt lat="31.78400700" lon="35.04089400">
        <ele>382.00000</ele>
        <time>2010-01-01T00:19:04Z</time>
      </trkpt>
      <trkpt lat="31.78441800" lon="35.04162300">
        <ele>390.00000</ele>
        <time>2010-01-01T00:19:34Z</time>
      </trkpt>
      <trkpt lat="31.78470900" lon="35.04229900">
        <ele>392.00000</ele>
        <time>2010-01-01T00:20:00Z</time>
      </trkpt>
      <trkpt lat="31.78476400" lon="35.04256700">
        <ele>393.00000</ele>
        <time>2010-01-01T00:20:09Z</time>
      </trkpt>
      <trkpt lat="31.78476400" lon="35.04298600">
        <ele>395.00000</ele>
        <time>2010-01-01T00:20:23Z</time>
      </trkpt>
      <trkpt lat="31.78481000" lon="35.04332900">
        <ele>394.00000</ele>
        <time>2010-01-01T00:20:35Z</time>
      </trkpt>
      <trkpt lat="31.78497400" lon="35.04415000">
        <ele>392.00000</ele>
        <time>2010-01-01T00:21:04Z</time>
      </trkpt>
      <trkpt lat="31.78508300" lon="35.04491700">
        <ele>396.00000</ele>
        <time>2010-01-01T00:21:30Z</time>
      </trkpt>
      <trkpt lat="31.78519300" lon="35.04548000">
        <ele>396.00000</ele>
        <time>2010-01-01T00:21:50Z</time>
      </trkpt>
      <trkpt lat="31.78526600" lon="35.04623700">
        <ele>397.00000</ele>
        <time>2010-01-01T00:22:16Z</time>
      </trkpt>
      <trkpt lat="31.78527500" lon="35.04710600">
        <ele>401.00000</ele>
        <time>2010-01-01T00:22:45Z</time>
      </trkpt>
      <trkpt lat="31.78540200" lon="35.04754500">
        <ele>404.00000</ele>
        <time>2010-01-01T00:23:01Z</time>
      </trkpt>
      <trkpt lat="31.78581300" lon="35.04856500">
        <ele>400.00000</ele>
        <time>2010-01-01T00:23:40Z</time>
      </trkpt>
      <trkpt lat="31.78608600" lon="35.04984700">
        <ele>409.00000</ele>
        <time>2010-01-01T00:24:25Z</time>
      </trkpt>
      <trkpt lat="31.78622800" lon="35.05022200">
        <ele>411.00000</ele>
        <time>2010-01-01T00:24:39Z</time>
      </trkpt>
      <trkpt lat="31.78627300" lon="35.05044800">
        <ele>412.00000</ele>
        <time>2010-01-01T00:24:46Z</time>
      </trkpt>
      <trkpt lat="31.78615900" lon="35.05119300">
        <ele>415.00000</ele>
        <time>2010-01-01T00:25:12Z</time>
      </trkpt>
      <trkpt lat="31.78612300" lon="35.05165500">
        <ele>418.00000</ele>
        <time>2010-01-01T00:25:28Z</time>
      </trkpt>
      <trkpt lat="31.78618700" lon="35.05249100">
        <ele>422.00000</ele>
        <time>2010-01-01T00:25:57Z</time>
      </trkpt>
      <trkpt lat="31.78603200" lon="35.05310300">
        <ele>420.00000</ele>
        <time>2010-01-01T00:26:18Z</time>
      </trkpt>
      <trkpt lat="31.78572200" lon="35.05372500">
        <ele>423.00000</ele>
        <time>2010-01-01T00:26:43Z</time>
      </trkpt>
      <trkpt lat="31.78544400" lon="35.05422900">
        <ele>431.00000</ele>
        <time>2010-01-01T00:27:03Z</time>
      </trkpt>
      <trkpt lat="31.78524300" lon="35.05476600">
        <ele>433.00000</ele>
        <time>2010-01-01T00:27:23Z</time>
      </trkpt>
      <trkpt lat="31.78512900" lon="35.05527600">
        <ele>432.00000</ele>
        <time>2010-01-01T00:27:41Z</time>
      </trkpt>
      <trkpt lat="31.78505600" lon="35.05563500">
        <ele>431.00000</ele>
        <time>2010-01-01T00:27:54Z</time>
      </trkpt>
      <trkpt lat="31.78512900" lon="35.05634300">
        <ele>430.00000</ele>
        <time>2010-01-01T00:28:18Z</time>
      </trkpt>
      <trkpt lat="31.78518800" lon="35.05653600">
        <ele>429.00000</ele>
        <time>2010-01-01T00:28:25Z</time>
      </trkpt>
      <trkpt lat="31.78529300" lon="35.05668600">
        <ele>429.00000</ele>
        <time>2010-01-01T00:28:32Z</time>
      </trkpt>
      <trkpt lat="31.78556200" lon="35.05696500">
        <ele>430.00000</ele>
        <time>2010-01-01T00:28:46Z</time>
      </trkpt>
      <trkpt lat="31.78574000" lon="35.05714800">
        <ele>428.00000</ele>
        <time>2010-01-01T00:28:55Z</time>
      </trkpt>
      <trkpt lat="31.78584500" lon="35.05735200">
        <ele>426.00000</ele>
        <time>2010-01-01T00:29:03Z</time>
      </trkpt>
      <trkpt lat="31.78595000" lon="35.05768400">
        <ele>431.00000</ele>
        <time>2010-01-01T00:29:16Z</time>
      </trkpt>
      <trkpt lat="31.78599500" lon="35.05800600">
        <ele>435.00000</ele>
        <time>2010-01-01T00:29:27Z</time>
      </trkpt>
      <trkpt lat="31.78590400" lon="35.05956200">
        <ele>437.00000</ele>
        <time>2010-01-01T00:30:20Z</time>
      </trkpt>
      <trkpt lat="31.78653300" lon="35.06075800">
        <ele>441.00000</ele>
        <time>2010-01-01T00:31:08Z</time>
      </trkpt>
      <trkpt lat="31.78678000" lon="35.06120300">
        <ele>444.00000</ele>
        <time>2010-01-01T00:31:26Z</time>
      </trkpt>
      <trkpt lat="31.78689800" lon="35.06160000">
        <ele>447.00000</ele>
        <time>2010-01-01T00:31:40Z</time>
      </trkpt>
      <trkpt lat="31.78703500" lon="35.06197600">
        <ele>448.00000</ele>
        <time>2010-01-01T00:31:54Z</time>
      </trkpt>
      <trkpt lat="31.78713500" lon="35.06240500">
        <ele>447.00000</ele>
        <time>2010-01-01T00:32:09Z</time>
      </trkpt>
      <trkpt lat="31.78728600" lon="35.06322000">
        <ele>440.00000</ele>
        <time>2010-01-01T00:32:37Z</time>
      </trkpt>
      <trkpt lat="31.78728100" lon="35.06355300">
        <ele>440.00000</ele>
        <time>2010-01-01T00:32:49Z</time>
      </trkpt>
      <trkpt lat="31.78720800" lon="35.06373500">
        <ele>441.00000</ele>
        <time>2010-01-01T00:32:56Z</time>
      </trkpt>
      <trkpt lat="31.78680200" lon="35.06399300">
        <ele>443.00000</ele>
        <time>2010-01-01T00:33:14Z</time>
      </trkpt>
      <trkpt lat="31.78581300" lon="35.06451300">
        <ele>452.00000</ele>
        <time>2010-01-01T00:33:57Z</time>
      </trkpt>
      <trkpt lat="31.78558500" lon="35.06467900">
        <ele>453.00000</ele>
        <time>2010-01-01T00:34:08Z</time>
      </trkpt>
      <trkpt lat="31.78517400" lon="35.06509800">
        <ele>448.00000</ele>
        <time>2010-01-01T00:34:30Z</time>
      </trkpt>
      <trkpt lat="31.78483700" lon="35.06536100">
        <ele>453.00000</ele>
        <time>2010-01-01T00:34:46Z</time>
      </trkpt>
      <trkpt lat="31.78460900" lon="35.06563400">
        <ele>456.00000</ele>
        <time>2010-01-01T00:34:59Z</time>
      </trkpt>
      <trkpt lat="31.78449000" lon="35.06607400">
        <ele>455.00000</ele>
        <time>2010-01-01T00:35:15Z</time>
      </trkpt>
      <trkpt lat="31.78434500" lon="35.06650300">
        <ele>455.00000</ele>
        <time>2010-01-01T00:35:31Z</time>
      </trkpt>
      <trkpt lat="31.78435400" lon="35.06685700">
        <ele>457.00000</ele>
        <time>2010-01-01T00:35:43Z</time>
      </trkpt>
      <trkpt lat="31.78445400" lon="35.06710400">
        <ele>459.00000</ele>
        <time>2010-01-01T00:35:52Z</time>
      </trkpt>
      <trkpt lat="31.78470900" lon="35.06725400">
        <ele>457.00000</ele>
        <time>2010-01-01T00:36:03Z</time>
      </trkpt>
      <trkpt lat="31.78497400" lon="35.06732900">
        <ele>452.00000</ele>
        <time>2010-01-01T00:36:14Z</time>
      </trkpt>
      <trkpt lat="31.78532000" lon="35.06736100">
        <ele>451.00000</ele>
        <time>2010-01-01T00:36:28Z</time>
      </trkpt>
      <trkpt lat="31.78567600" lon="35.06724400">
        <ele>451.00000</ele>
        <time>2010-01-01T00:36:43Z</time>
      </trkpt>
      <trkpt lat="31.78595900" lon="35.06722200">
        <ele>454.00000</ele>
        <time>2010-01-01T00:36:54Z</time>
      </trkpt>
      <trkpt lat="31.78607300" lon="35.06745800">
        <ele>453.00000</ele>
        <time>2010-01-01T00:37:04Z</time>
      </trkpt>
      <trkpt lat="31.78614600" lon="35.06775300">
        <ele>456.00000</ele>
        <time>2010-01-01T00:37:14Z</time>
      </trkpt>
      <trkpt lat="31.78616400" lon="35.06798400">
        <ele>458.00000</ele>
        <time>2010-01-01T00:37:22Z</time>
      </trkpt>
      <trkpt lat="31.78595000" lon="35.06846700">
        <ele>459.00000</ele>
        <time>2010-01-01T00:37:40Z</time>
      </trkpt>
      <trkpt lat="31.78580400" lon="35.06894900">
        <ele>458.00000</ele>
        <time>2010-01-01T00:37:58Z</time>
      </trkpt>
      <trkpt lat="31.78570800" lon="35.06914800">
        <ele>461.00000</ele>
        <time>2010-01-01T00:38:06Z</time>
      </trkpt>
      <trkpt lat="31.78564900" lon="35.06945400">
        <ele>461.00000</ele>
        <time>2010-01-01T00:38:16Z</time>
      </trkpt>
      <trkpt lat="31.78558900" lon="35.06983500">
        <ele>461.00000</ele>
        <time>2010-01-01T00:38:29Z</time>
      </trkpt>
      <trkpt lat="31.78563000" lon="35.06997900">
        <ele>459.00000</ele>
        <time>2010-01-01T00:38:35Z</time>
      </trkpt>
      <trkpt lat="31.78574000" lon="35.07009700">
        <ele>460.00000</ele>
        <time>2010-01-01T00:38:41Z</time>
      </trkpt>
      <trkpt lat="31.78623200" lon="35.07046200">
        <ele>470.00000</ele>
        <time>2010-01-01T00:39:04Z</time>
      </trkpt>
      <trkpt lat="31.78653300" lon="35.07055300">
        <ele>472.00000</ele>
        <time>2010-01-01T00:39:16Z</time>
      </trkpt>
      <trkpt lat="31.78683000" lon="35.07058600">
        <ele>473.00000</ele>
        <time>2010-01-01T00:39:28Z</time>
      </trkpt>
      <trkpt lat="31.78723600" lon="35.07049400">
        <ele>475.00000</ele>
        <time>2010-01-01T00:39:45Z</time>
      </trkpt>
      <trkpt lat="31.78768200" lon="35.07041900">
        <ele>476.00000</ele>
        <time>2010-01-01T00:40:03Z</time>
      </trkpt>
      <trkpt lat="31.78800200" lon="35.07038700">
        <ele>476.00000</ele>
        <time>2010-01-01T00:40:16Z</time>
      </trkpt>
      <trkpt lat="31.78838500" lon="35.07032300">
        <ele>477.00000</ele>
        <time>2010-01-01T00:40:31Z</time>
      </trkpt>
      <trkpt lat="31.78850800" lon="35.07032800">
        <ele>479.00000</ele>
        <time>2010-01-01T00:40:36Z</time>
      </trkpt>
      <trkpt lat="31.78865400" lon="35.07039200">
        <ele>480.00000</ele>
        <time>2010-01-01T00:40:42Z</time>
      </trkpt>
      <trkpt lat="31.78875800" lon="35.07052700">
        <ele>480.00000</ele>
        <time>2010-01-01T00:40:49Z</time>
      </trkpt>
      <trkpt lat="31.78883600" lon="35.07088600">
        <ele>477.00000</ele>
        <time>2010-01-01T00:41:01Z</time>
      </trkpt>
      <trkpt lat="31.78875800" lon="35.07151400">
        <ele>480.00000</ele>
        <time>2010-01-01T00:41:23Z</time>
      </trkpt>
      <trkpt lat="31.78874500" lon="35.07207200">
        <ele>485.00000</ele>
        <time>2010-01-01T00:41:42Z</time>
      </trkpt>
      <trkpt lat="31.78883100" lon="35.07238300">
        <ele>486.00000</ele>
        <time>2010-01-01T00:41:53Z</time>
      </trkpt>
      <trkpt lat="31.78905900" lon="35.07261900">
        <ele>484.00000</ele>
        <time>2010-01-01T00:42:05Z</time>
      </trkpt>
      <trkpt lat="31.78961600" lon="35.07305900">
        <ele>487.00000</ele>
        <time>2010-01-01T00:42:32Z</time>
      </trkpt>
      <trkpt lat="31.78996200" lon="35.07325200">
        <ele>484.00000</ele>
        <time>2010-01-01T00:42:47Z</time>
      </trkpt>
      <trkpt lat="31.79033200" lon="35.07374500">
        <ele>489.00000</ele>
        <time>2010-01-01T00:43:10Z</time>
      </trkpt>
      <trkpt lat="31.79054600" lon="35.07393800">
        <ele>488.00000</ele>
        <time>2010-01-01T00:43:20Z</time>
      </trkpt>
      <trkpt lat="31.79076500" lon="35.07411000">
        <ele>485.00000</ele>
        <time>2010-01-01T00:43:31Z</time>
      </trkpt>
      <trkpt lat="31.79106100" lon="35.07427600">
        <ele>488.00000</ele>
        <time>2010-01-01T00:43:44Z</time>
      </trkpt>
      <trkpt lat="31.79134800" lon="35.07453900">
        <ele>492.00000</ele>
        <time>2010-01-01T00:43:59Z</time>
      </trkpt>
      <trkpt lat="31.79139900" lon="35.07475400">
        <ele>491.00000</ele>
        <time>2010-01-01T00:44:06Z</time>
      </trkpt>
      <trkpt lat="31.79134800" lon="35.07501100">
        <ele>489.00000</ele>
        <time>2010-01-01T00:44:15Z</time>
      </trkpt>
      <trkpt lat="31.79120200" lon="35.07521000">
        <ele>490.00000</ele>
        <time>2010-01-01T00:44:24Z</time>
      </trkpt>
      <trkpt lat="31.79096500" lon="35.07531200">
        <ele>489.00000</ele>
        <time>2010-01-01T00:44:34Z</time>
      </trkpt>
      <trkpt lat="31.78965200" lon="35.07602000">
        <ele>497.00000</ele>
        <time>2010-01-01T00:45:32Z</time>
      </trkpt>
      <trkpt lat="31.78876300" lon="35.07702300">
        <ele>503.00000</ele>
        <time>2010-01-01T00:46:21Z</time>
      </trkpt>
      <trkpt lat="31.78865800" lon="35.07719500">
        <ele>505.00000</ele>
        <time>2010-01-01T00:46:29Z</time>
      </trkpt>
      <trkpt lat="31.78854900" lon="35.07745200">
        <ele>505.00000</ele>
        <time>2010-01-01T00:46:38Z</time>
      </trkpt>
      <trkpt lat="31.78850300" lon="35.07773600">
        <ele>506.00000</ele>
        <time>2010-01-01T00:46:48Z</time>
      </trkpt>
      <trkpt lat="31.78861700" lon="35.07817600">
        <ele>507.00000</ele>
        <time>2010-01-01T00:47:04Z</time>
      </trkpt>
      <trkpt lat="31.78873100" lon="35.07851400">
        <ele>510.00000</ele>
        <time>2010-01-01T00:47:16Z</time>
      </trkpt>
      <trkpt lat="31.78885000" lon="35.07893300">
        <ele>513.00000</ele>
        <time>2010-01-01T00:47:31Z</time>
      </trkpt>
      <trkpt lat="31.78906400" lon="35.07917400">
        <ele>511.00000</ele>
        <time>2010-01-01T00:47:43Z</time>
      </trkpt>
      <trkpt lat="31.78937900" lon="35.07928700">
        <ele>513.00000</ele>
        <time>2010-01-01T00:47:56Z</time>
      </trkpt>
      <trkpt lat="31.78979800" lon="35.07938900">
        <ele>516.00000</ele>
        <time>2010-01-01T00:48:13Z</time>
      </trkpt>
      <trkpt lat="31.79032700" lon="35.07942600">
        <ele>519.00000</ele>
        <time>2010-01-01T00:48:35Z</time>
      </trkpt>
      <trkpt lat="31.79076500" lon="35.07957100">
        <ele>521.00000</ele>
        <time>2010-01-01T00:48:53Z</time>
      </trkpt>
      <trkpt lat="31.79125700" lon="35.07987100">
        <ele>518.00000</ele>
        <time>2010-01-01T00:49:15Z</time>
      </trkpt>
      <trkpt lat="31.79155800" lon="35.08010700">
        <ele>516.00000</ele>
        <time>2010-01-01T00:49:29Z</time>
      </trkpt>
      <trkpt lat="31.79195000" lon="35.08039700">
        <ele>518.00000</ele>
        <time>2010-01-01T00:49:48Z</time>
      </trkpt>
      <trkpt lat="31.79257000" lon="35.08054700">
        <ele>516.00000</ele>
        <time>2010-01-01T00:50:13Z</time>
      </trkpt>
      <trkpt lat="31.79328600" lon="35.08048800">
        <ele>514.00000</ele>
        <time>2010-01-01T00:50:42Z</time>
      </trkpt>
      <trkpt lat="31.79365100" lon="35.08047200">
        <ele>514.00000</ele>
        <time>2010-01-01T00:50:57Z</time>
      </trkpt>
      <trkpt lat="31.79430300" lon="35.08083700">
        <ele>512.00000</ele>
        <time>2010-01-01T00:51:26Z</time>
      </trkpt>
      <trkpt lat="31.79450400" lon="35.08106200">
        <ele>513.00000</ele>
        <time>2010-01-01T00:51:37Z</time>
      </trkpt>
      <trkpt lat="31.79508300" lon="35.08166800">
        <ele>514.00000</ele>
        <time>2010-01-01T00:52:08Z</time>
      </trkpt>
      <trkpt lat="31.79520100" lon="35.08230100">
        <ele>518.00000</ele>
        <time>2010-01-01T00:52:30Z</time>
      </trkpt>
      <trkpt lat="31.79516000" lon="35.08303600">
        <ele>517.00000</ele>
        <time>2010-01-01T00:52:55Z</time>
      </trkpt>
      <trkpt lat="31.79503700" lon="35.08388400">
        <ele>517.00000</ele>
        <time>2010-01-01T00:53:24Z</time>
      </trkpt>
      <trkpt lat="31.79455400" lon="35.08585800">
        <ele>527.00000</ele>
        <time>2010-01-01T00:54:34Z</time>
      </trkpt>
      <trkpt lat="31.79461300" lon="35.08593300">
        <ele>527.00000</ele>
        <time>2010-01-01T00:54:37Z</time>
      </trkpt>
      <trkpt lat="31.79484600" lon="35.08596500">
        <ele>528.00000</ele>
        <time>2010-01-01T00:54:47Z</time>
      </trkpt>
      <trkpt lat="31.79485000" lon="35.08619100">
        <ele>528.00000</ele>
        <time>2010-01-01T00:54:55Z</time>
      </trkpt>
      <trkpt lat="31.79477700" lon="35.08663600">
        <ele>530.00000</ele>
        <time>2010-01-01T00:55:10Z</time>
      </trkpt>
      <trkpt lat="31.79468600" lon="35.08734900">
        <ele>531.00000</ele>
        <time>2010-01-01T00:55:35Z</time>
      </trkpt>
      <trkpt lat="31.79465400" lon="35.08839500">
        <ele>531.00000</ele>
        <time>2010-01-01T00:56:10Z</time>
      </trkpt>
      <trkpt lat="31.79463600" lon="35.08932900">
        <ele>532.00000</ele>
        <time>2010-01-01T00:56:42Z</time>
      </trkpt>
      <trkpt lat="31.79468600" lon="35.08997800">
        <ele>534.00000</ele>
        <time>2010-01-01T00:57:04Z</time>
      </trkpt>
      <trkpt lat="31.79480000" lon="35.09060000">
        <ele>533.00000</ele>
        <time>2010-01-01T00:57:26Z</time>
      </trkpt>
      <trkpt lat="31.79493700" lon="35.09102900">
        <ele>532.00000</ele>
        <time>2010-01-01T00:57:41Z</time>
      </trkpt>
      <trkpt lat="31.79518300" lon="35.09137300">
        <ele>534.00000</ele>
        <time>2010-01-01T00:57:57Z</time>
      </trkpt>
      <trkpt lat="31.79532000" lon="35.09150100">
        <ele>536.00000</ele>
        <time>2010-01-01T00:58:04Z</time>
      </trkpt>
      <trkpt lat="31.79558000" lon="35.09166800">
        <ele>539.00000</ele>
        <time>2010-01-01T00:58:15Z</time>
      </trkpt>
      <trkpt lat="31.79603100" lon="35.09227900">
        <ele>543.00000</ele>
        <time>2010-01-01T00:58:43Z</time>
      </trkpt>
      <trkpt lat="31.79616300" lon="35.09304600">
        <ele>543.00000</ele>
        <time>2010-01-01T00:59:10Z</time>
      </trkpt>
      <trkpt lat="31.79611300" lon="35.09322300">
        <ele>541.00000</ele>
        <time>2010-01-01T00:59:16Z</time>
      </trkpt>
      <trkpt lat="31.79597200" lon="35.09343800">
        <ele>537.00000</ele>
        <time>2010-01-01T00:59:25Z</time>
      </trkpt>
      <trkpt lat="31.79573500" lon="35.09430200">
        <ele>536.00000</ele>
        <time>2010-01-01T00:59:56Z</time>
      </trkpt>
      <trkpt lat="31.79546600" lon="35.09482700">
        <ele>541.00000</ele>
        <time>2010-01-01T01:00:17Z</time>
      </trkpt>
      <trkpt lat="31.79515600" lon="35.09518100">
        <ele>542.00000</ele>
        <time>2010-01-01T01:00:34Z</time>
      </trkpt>
      <trkpt lat="31.79458600" lon="35.09546000">
        <ele>546.00000</ele>
        <time>2010-01-01T01:00:59Z</time>
      </trkpt>
      <trkpt lat="31.79426600" lon="35.09556200">
        <ele>548.00000</ele>
        <time>2010-01-01T01:01:12Z</time>
      </trkpt>
      <trkpt lat="31.79393400" lon="35.09557300">
        <ele>548.00000</ele>
        <time>2010-01-01T01:01:26Z</time>
      </trkpt>
      <trkpt lat="31.79331400" lon="35.09546000">
        <ele>550.00000</ele>
        <time>2010-01-01T01:01:51Z</time>
      </trkpt>
      <trkpt lat="31.79225600" lon="35.09528300">
        <ele>549.00000</ele>
        <time>2010-01-01T01:02:33Z</time>
      </trkpt>
      <trkpt lat="31.79204100" lon="35.09515500">
        <ele>548.00000</ele>
        <time>2010-01-01T01:02:43Z</time>
      </trkpt>
      <trkpt lat="31.79148500" lon="35.09521900">
        <ele>550.00000</ele>
        <time>2010-01-01T01:03:05Z</time>
      </trkpt>
      <trkpt lat="31.79113000" lon="35.09543900">
        <ele>550.00000</ele>
        <time>2010-01-01T01:03:22Z</time>
      </trkpt>
      <trkpt lat="31.79077400" lon="35.09580900">
        <ele>547.00000</ele>
        <time>2010-01-01T01:03:41Z</time>
      </trkpt>
      <trkpt lat="31.79041800" lon="35.09673700">
        <ele>547.00000</ele>
        <time>2010-01-01T01:04:15Z</time>
      </trkpt>
      <trkpt lat="31.79040000" lon="35.09719800">
        <ele>549.00000</ele>
        <time>2010-01-01T01:04:31Z</time>
      </trkpt>
      <trkpt lat="31.79012600" lon="35.09870600">
        <ele>552.00000</ele>
        <time>2010-01-01T01:05:23Z</time>
      </trkpt>
      <trkpt lat="31.79005800" lon="35.09947300">
        <ele>553.00000</ele>
        <time>2010-01-01T01:05:50Z</time>
      </trkpt>
      <trkpt lat="31.79042300" lon="35.10025100">
        <ele>557.00000</ele>
        <time>2010-01-01T01:06:20Z</time>
      </trkpt>
      <trkpt lat="31.79152600" lon="35.10140400">
        <ele>560.00000</ele>
        <time>2010-01-01T01:07:19Z</time>
      </trkpt>
      <trkpt lat="31.79177700" lon="35.10172100">
        <ele>559.00000</ele>
        <time>2010-01-01T01:07:34Z</time>
      </trkpt>
      <trkpt lat="31.79225100" lon="35.10230000">
        <ele>563.00000</ele>
        <time>2010-01-01T01:08:01Z</time>
      </trkpt>
      <trkpt lat="31.79245200" lon="35.10301900">
        <ele>560.00000</ele>
        <time>2010-01-01T01:08:27Z</time>
      </trkpt>
      <trkpt lat="31.79251600" lon="35.10356600">
        <ele>559.00000</ele>
        <time>2010-01-01T01:08:46Z</time>
      </trkpt>
      <trkpt lat="31.79249700" lon="35.10427900">
        <ele>558.00000</ele>
        <time>2010-01-01T01:09:10Z</time>
      </trkpt>
      <trkpt lat="31.79244300" lon="35.10491300">
        <ele>559.00000</ele>
        <time>2010-01-01T01:09:31Z</time>
      </trkpt>
      <trkpt lat="31.79242900" lon="35.10540100">
        <ele>561.00000</ele>
        <time>2010-01-01T01:09:48Z</time>
      </trkpt>
      <trkpt lat="31.79249700" lon="35.10608200">
        <ele>564.00000</ele>
        <time>2010-01-01T01:10:11Z</time>
      </trkpt>
      <trkpt lat="31.79269800" lon="35.10672000">
        <ele>567.00000</ele>
        <time>2010-01-01T01:10:35Z</time>
      </trkpt>
      <trkpt lat="31.79290300" lon="35.10724100">
        <ele>569.00000</ele>
        <time>2010-01-01T01:10:54Z</time>
      </trkpt>
      <trkpt lat="31.79285300" lon="35.10727300">
        <ele>570.00000</ele>
        <time>2010-01-01T01:10:56Z</time>
      </trkpt>
      <trkpt lat="31.79261100" lon="35.10666100">
        <ele>567.00000</ele>
        <time>2010-01-01T01:11:19Z</time>
      </trkpt>
      <trkpt lat="31.79244700" lon="35.10603900">
        <ele>565.00000</ele>
        <time>2010-01-01T01:11:41Z</time>
      </trkpt>
      <trkpt lat="31.79239300" lon="35.10540100">
        <ele>562.00000</ele>
        <time>2010-01-01T01:12:03Z</time>
      </trkpt>
      <trkpt lat="31.79239300" lon="35.10492300">
        <ele>559.00000</ele>
        <time>2010-01-01T01:12:20Z</time>
      </trkpt>
      <trkpt lat="31.79245600" lon="35.10427900">
        <ele>559.00000</ele>
        <time>2010-01-01T01:12:42Z</time>
      </trkpt>
      <trkpt lat="31.79246100" lon="35.10358200">
        <ele>560.00000</ele>
        <time>2010-01-01T01:13:05Z</time>
      </trkpt>
      <trkpt lat="31.79241500" lon="35.10304600">
        <ele>561.00000</ele>
        <time>2010-01-01T01:13:24Z</time>
      </trkpt>
      <trkpt lat="31.79220100" lon="35.10233200">
        <ele>563.00000</ele>
        <time>2010-01-01T01:13:49Z</time>
      </trkpt>
      <trkpt lat="31.79149900" lon="35.10142600">
        <ele>560.00000</ele>
        <time>2010-01-01T01:14:31Z</time>
      </trkpt>
      <trkpt lat="31.79100600" lon="35.10094800">
        <ele>559.00000</ele>
        <time>2010-01-01T01:14:57Z</time>
      </trkpt>
      <trkpt lat="31.79038600" lon="35.10028300">
        <ele>558.00000</ele>
        <time>2010-01-01T01:15:30Z</time>
      </trkpt>
      <trkpt lat="31.79016300" lon="35.09984900">
        <ele>555.00000</ele>
        <time>2010-01-01T01:15:48Z</time>
      </trkpt>
      <trkpt lat="31.79002200" lon="35.09945200">
        <ele>553.00000</ele>
        <time>2010-01-01T01:16:02Z</time>
      </trkpt>
      <trkpt lat="31.79005300" lon="35.09895300">
        <ele>551.00000</ele>
        <time>2010-01-01T01:16:19Z</time>
      </trkpt>
      <trkpt lat="31.79018600" lon="35.09812700">
        <ele>551.00000</ele>
        <time>2010-01-01T01:16:48Z</time>
      </trkpt>
      <trkpt lat="31.79036800" lon="35.09718800">
        <ele>549.00000</ele>
        <time>2010-01-01T01:17:21Z</time>
      </trkpt>
      <trkpt lat="31.79036800" lon="35.09698900">
        <ele>548.00000</ele>
        <time>2010-01-01T01:17:27Z</time>
      </trkpt>
      <trkpt lat="31.79037300" lon="35.09673700">
        <ele>547.00000</ele>
        <time>2010-01-01T01:17:36Z</time>
      </trkpt>
      <trkpt lat="31.79059600" lon="35.09607700">
        <ele>548.00000</ele>
        <time>2010-01-01T01:18:00Z</time>
      </trkpt>
      <trkpt lat="31.79074200" lon="35.09576100">
        <ele>548.00000</ele>
        <time>2010-01-01T01:18:12Z</time>
      </trkpt>
      <trkpt lat="31.79112000" lon="35.09536400">
        <ele>551.00000</ele>
        <time>2010-01-01T01:18:33Z</time>
      </trkpt>
      <trkpt lat="31.79146700" lon="35.09516500">
        <ele>550.00000</ele>
        <time>2010-01-01T01:18:48Z</time>
      </trkpt>
      <trkpt lat="31.79203700" lon="35.09509000">
        <ele>548.00000</ele>
        <time>2010-01-01T01:19:11Z</time>
      </trkpt>
      <trkpt lat="31.79226900" lon="35.09521900">
        <ele>549.00000</ele>
        <time>2010-01-01T01:19:21Z</time>
      </trkpt>
      <trkpt lat="31.79242400" lon="35.09524600">
        <ele>549.00000</ele>
        <time>2010-01-01T01:19:28Z</time>
      </trkpt>
      <trkpt lat="31.79334100" lon="35.09540700">
        <ele>550.00000</ele>
        <time>2010-01-01T01:20:05Z</time>
      </trkpt>
      <trkpt lat="31.79353200" lon="35.09546600">
        <ele>549.00000</ele>
        <time>2010-01-01T01:20:13Z</time>
      </trkpt>
      <trkpt lat="31.79394700" lon="35.09553000">
        <ele>548.00000</ele>
        <time>2010-01-01T01:20:29Z</time>
      </trkpt>
      <trkpt lat="31.79424400" lon="35.09550900">
        <ele>547.00000</ele>
        <time>2010-01-01T01:20:41Z</time>
      </trkpt>
      <trkpt lat="31.79458100" lon="35.09541200">
        <ele>546.00000</ele>
        <time>2010-01-01T01:20:55Z</time>
      </trkpt>
      <trkpt lat="31.79483200" lon="35.09501500">
        <ele>539.00000</ele>
        <time>2010-01-01T01:21:12Z</time>
      </trkpt>
      <trkpt lat="31.79519200" lon="35.09467200">
        <ele>540.00000</ele>
        <time>2010-01-01T01:21:31Z</time>
      </trkpt>
      <trkpt lat="31.79540600" lon="35.09438200">
        <ele>539.00000</ele>
        <time>2010-01-01T01:21:44Z</time>
      </trkpt>
      <trkpt lat="31.79550200" lon="35.09407600">
        <ele>537.00000</ele>
        <time>2010-01-01T01:21:55Z</time>
      </trkpt>
      <trkpt lat="31.79554300" lon="35.09333100">
        <ele>537.00000</ele>
        <time>2010-01-01T01:22:20Z</time>
      </trkpt>
      <trkpt lat="31.79550700" lon="35.09296000">
        <ele>536.00000</ele>
        <time>2010-01-01T01:22:33Z</time>
      </trkpt>
      <trkpt lat="31.79542900" lon="35.09273000">
        <ele>535.00000</ele>
        <time>2010-01-01T01:22:41Z</time>
      </trkpt>
      <trkpt lat="31.79530600" lon="35.09250500">
        <ele>534.00000</ele>
        <time>2010-01-01T01:22:50Z</time>
      </trkpt>
      <trkpt lat="31.79525600" lon="35.09219300">
        <ele>534.00000</ele>
        <time>2010-01-01T01:23:01Z</time>
      </trkpt>
      <trkpt lat="31.79510500" lon="35.09176400">
        <ele>533.00000</ele>
        <time>2010-01-01T01:23:17Z</time>
      </trkpt>
      <trkpt lat="31.79475400" lon="35.09139400">
        <ele>535.00000</ele>
        <time>2010-01-01T01:23:36Z</time>
      </trkpt>
      <trkpt lat="31.79448500" lon="35.09067000">
        <ele>535.00000</ele>
        <time>2010-01-01T01:24:03Z</time>
      </trkpt>
      <trkpt lat="31.79426600" lon="35.09029400">
        <ele>535.00000</ele>
        <time>2010-01-01T01:24:18Z</time>
      </trkpt>
      <trkpt lat="31.79408400" lon="35.08988100">
        <ele>535.00000</ele>
        <time>2010-01-01T01:24:34Z</time>
      </trkpt>
      <trkpt lat="31.79391100" lon="35.08906600">
        <ele>535.00000</ele>
        <time>2010-01-01T01:25:03Z</time>
      </trkpt>
      <trkpt lat="31.79366900" lon="35.08813300">
        <ele>539.00000</ele>
        <time>2010-01-01T01:25:36Z</time>
      </trkpt>
      <trkpt lat="31.79363700" lon="35.08744600">
        <ele>541.00000</ele>
        <time>2010-01-01T01:25:59Z</time>
      </trkpt>
      <trkpt lat="31.79354200" lon="35.08641600">
        <ele>543.00000</ele>
        <time>2010-01-01T01:26:34Z</time>
      </trkpt>
      <trkpt lat="31.79331800" lon="35.08535400">
        <ele>548.00000</ele>
        <time>2010-01-01T01:27:12Z</time>
      </trkpt>
      <trkpt lat="31.79323600" lon="35.08495200">
        <ele>550.00000</ele>
        <time>2010-01-01T01:27:26Z</time>
      </trkpt>
      <trkpt lat="31.79311700" lon="35.08467300">
        <ele>551.00000</ele>
        <time>2010-01-01T01:27:36Z</time>
      </trkpt>
      <trkpt lat="31.79211900" lon="35.08370700">
        <ele>561.00000</ele>
        <time>2010-01-01T01:28:28Z</time>
      </trkpt>
      <trkpt lat="31.79075100" lon="35.08221000">
        <ele>576.00000</ele>
        <time>2010-01-01T01:29:43Z</time>
      </trkpt>
      <trkpt lat="31.78980700" lon="35.08159900">
        <ele>579.00000</ele>
        <time>2010-01-01T01:30:26Z</time>
      </trkpt>
      <trkpt lat="31.78898200" lon="35.08160900">
        <ele>589.00000</ele>
        <time>2010-01-01T01:30:59Z</time>
      </trkpt>
      <trkpt lat="31.78796500" lon="35.08110500">
        <ele>589.00000</ele>
        <time>2010-01-01T01:31:43Z</time>
      </trkpt>
      <trkpt lat="31.78668800" lon="35.07994100">
        <ele>587.00000</ele>
        <time>2010-01-01T01:32:48Z</time>
      </trkpt>
      <trkpt lat="31.78582200" lon="35.07853000">
        <ele>584.00000</ele>
        <time>2010-01-01T01:33:47Z</time>
      </trkpt>
      <trkpt lat="31.78584000" lon="35.07775800">
        <ele>589.00000</ele>
        <time>2010-01-01T01:34:13Z</time>
      </trkpt>
      <trkpt lat="31.78590400" lon="35.07742000">
        <ele>591.00000</ele>
        <time>2010-01-01T01:34:25Z</time>
      </trkpt>
      <trkpt lat="31.78609600" lon="35.07698500">
        <ele>592.00000</ele>
        <time>2010-01-01T01:34:42Z</time>
      </trkpt>
      <trkpt lat="31.78620000" lon="35.07667900">
        <ele>595.00000</ele>
        <time>2010-01-01T01:34:53Z</time>
      </trkpt>
      <trkpt lat="31.78635100" lon="35.07639000">
        <ele>594.00000</ele>
        <time>2010-01-01T01:35:05Z</time>
      </trkpt>
      <trkpt lat="31.78651500" lon="35.07610600">
        <ele>594.00000</ele>
        <time>2010-01-01T01:35:16Z</time>
      </trkpt>
      <trkpt lat="31.78679300" lon="35.07567600">
        <ele>590.00000</ele>
        <time>2010-01-01T01:35:35Z</time>
      </trkpt>
      <trkpt lat="31.78686600" lon="35.07545700">
        <ele>587.00000</ele>
        <time>2010-01-01T01:35:43Z</time>
      </trkpt>
      <trkpt lat="31.78684800" lon="35.07506500">
        <ele>586.00000</ele>
        <time>2010-01-01T01:35:56Z</time>
      </trkpt>
      <trkpt lat="31.78664300" lon="35.07442700">
        <ele>582.00000</ele>
        <time>2010-01-01T01:36:19Z</time>
      </trkpt>
      <trkpt lat="31.78644200" lon="35.07351500">
        <ele>572.00000</ele>
        <time>2010-01-01T01:36:51Z</time>
      </trkpt>
      <trkpt lat="31.78633300" lon="35.07322500">
        <ele>569.00000</ele>
        <time>2010-01-01T01:37:02Z</time>
      </trkpt>
      <trkpt lat="31.78620500" lon="35.07294600">
        <ele>564.00000</ele>
        <time>2010-01-01T01:37:13Z</time>
      </trkpt>
      <trkpt lat="31.78607700" lon="35.07272600">
        <ele>558.00000</ele>
        <time>2010-01-01T01:37:22Z</time>
      </trkpt>
      <trkpt lat="31.78593100" lon="35.07267200">
        <ele>559.00000</ele>
        <time>2010-01-01T01:37:28Z</time>
      </trkpt>
      <trkpt lat="31.78551200" lon="35.07281200">
        <ele>562.00000</ele>
        <time>2010-01-01T01:37:45Z</time>
      </trkpt>
      <trkpt lat="31.78533000" lon="35.07294100">
        <ele>565.00000</ele>
        <time>2010-01-01T01:37:54Z</time>
      </trkpt>
      <trkpt lat="31.78511500" lon="35.07313900">
        <ele>571.00000</ele>
        <time>2010-01-01T01:38:05Z</time>
      </trkpt>
      <trkpt lat="31.78493300" lon="35.07339700">
        <ele>577.00000</ele>
        <time>2010-01-01T01:38:16Z</time>
      </trkpt>
      <trkpt lat="31.78459100" lon="35.07393300">
        <ele>577.00000</ele>
        <time>2010-01-01T01:38:39Z</time>
      </trkpt>
      <trkpt lat="31.78449000" lon="35.07426000">
        <ele>579.00000</ele>
        <time>2010-01-01T01:38:51Z</time>
      </trkpt>
      <trkpt lat="31.78436300" lon="35.07524700">
        <ele>586.00000</ele>
        <time>2010-01-01T01:39:25Z</time>
      </trkpt>
      <trkpt lat="31.78413900" lon="35.07596100">
        <ele>586.00000</ele>
        <time>2010-01-01T01:39:51Z</time>
      </trkpt>
      <trkpt lat="31.78400300" lon="35.07655100">
        <ele>584.00000</ele>
        <time>2010-01-01T01:40:12Z</time>
      </trkpt>
      <trkpt lat="31.78393000" lon="35.07723200">
        <ele>577.00000</ele>
        <time>2010-01-01T01:40:35Z</time>
      </trkpt>
      <trkpt lat="31.78399300" lon="35.07745200">
        <ele>578.00000</ele>
        <time>2010-01-01T01:40:43Z</time>
      </trkpt>
      <trkpt lat="31.78428500" lon="35.07788700">
        <ele>579.00000</ele>
        <time>2010-01-01T01:41:02Z</time>
      </trkpt>
      <trkpt lat="31.78491000" lon="35.07823000">
        <ele>586.00000</ele>
        <time>2010-01-01T01:41:29Z</time>
      </trkpt>
      <trkpt lat="31.78526600" lon="35.07830500">
        <ele>586.00000</ele>
        <time>2010-01-01T01:41:44Z</time>
      </trkpt>
      <trkpt lat="31.78547500" lon="35.07843900">
        <ele>584.00000</ele>
        <time>2010-01-01T01:41:53Z</time>
      </trkpt>
      <trkpt lat="31.78556700" lon="35.07864800">
        <ele>584.00000</ele>
        <time>2010-01-01T01:42:01Z</time>
      </trkpt>
      <trkpt lat="31.78440400" lon="35.08110500">
        <ele>573.00000</ele>
        <time>2010-01-01T01:43:37Z</time>
      </trkpt>
      <trkpt lat="31.78320500" lon="35.08300400">
        <ele>577.00000</ele>
        <time>2010-01-01T01:44:58Z</time>
      </trkpt>
      <trkpt lat="31.78264800" lon="35.08424300">
        <ele>578.00000</ele>
        <time>2010-01-01T01:45:45Z</time>
      </trkpt>
      <trkpt lat="31.78248000" lon="35.08505300">
        <ele>579.00000</ele>
        <time>2010-01-01T01:46:14Z</time>
      </trkpt>
      <trkpt lat="31.78235600" lon="35.08522000">
        <ele>582.00000</ele>
        <time>2010-01-01T01:46:21Z</time>
      </trkpt>
      <trkpt lat="31.78259400" lon="35.08613200">
        <ele>591.00000</ele>
        <time>2010-01-01T01:46:54Z</time>
      </trkpt>
      <trkpt lat="31.78271200" lon="35.08722600">
        <ele>599.00000</ele>
        <time>2010-01-01T01:47:31Z</time>
      </trkpt>
      <trkpt lat="31.78281700" lon="35.08785900">
        <ele>604.00000</ele>
        <time>2010-01-01T01:47:53Z</time>
      </trkpt>
      <trkpt lat="31.78308100" lon="35.08876000">
        <ele>608.00000</ele>
        <time>2010-01-01T01:48:26Z</time>
      </trkpt>
      <trkpt lat="31.78326400" lon="35.08977900">
        <ele>610.00000</ele>
        <time>2010-01-01T01:49:01Z</time>
      </trkpt>
      <trkpt lat="31.78331400" lon="35.09211800">
        <ele>627.00000</ele>
        <time>2010-01-01T01:50:21Z</time>
      </trkpt>
      <trkpt lat="31.78274900" lon="35.09414600">
        <ele>647.00000</ele>
        <time>2010-01-01T01:51:33Z</time>
      </trkpt>
      <trkpt lat="31.78268000" lon="35.09487600">
        <ele>647.00000</ele>
        <time>2010-01-01T01:51:58Z</time>
      </trkpt>
      <trkpt lat="31.78199600" lon="35.09754200">
        <ele>655.00000</ele>
        <time>2010-01-01T01:53:33Z</time>
      </trkpt>
      <trkpt lat="31.78203700" lon="35.09857200">
        <ele>658.00000</ele>
        <time>2010-01-01T01:54:08Z</time>
      </trkpt>
      <trkpt lat="31.78215100" lon="35.09940900">
        <ele>656.00000</ele>
        <time>2010-01-01T01:54:37Z</time>
      </trkpt>
      <trkpt lat="31.78229300" lon="35.10086200">
        <ele>660.00000</ele>
        <time>2010-01-01T01:55:27Z</time>
      </trkpt>
      <trkpt lat="31.78229300" lon="35.10191900">
        <ele>665.00000</ele>
        <time>2010-01-01T01:56:03Z</time>
      </trkpt>
      <trkpt lat="31.78204200" lon="35.10257400">
        <ele>673.00000</ele>
        <time>2010-01-01T01:56:27Z</time>
      </trkpt>
      <trkpt lat="31.78149900" lon="35.10367300">
        <ele>679.00000</ele>
        <time>2010-01-01T01:57:10Z</time>
      </trkpt>
      <trkpt lat="31.78154000" lon="35.10407000">
        <ele>680.00000</ele>
        <time>2010-01-01T01:57:24Z</time>
      </trkpt>
      <trkpt lat="31.78269800" lon="35.10767000">
        <ele>698.00000</ele>
        <time>2010-01-01T01:59:35Z</time>
      </trkpt>
      <trkpt lat="31.78264800" lon="35.10770700">
        <ele>699.00000</ele>
        <time>2010-01-01T01:59:37Z</time>
      </trkpt>
      <trkpt lat="31.78206500" lon="35.10577100">
        <ele>689.00000</ele>
        <time>2010-01-01T02:00:47Z</time>
      </trkpt>
      <trkpt lat="31.78148100" lon="35.10405400">
        <ele>681.00000</ele>
        <time>2010-01-01T02:01:50Z</time>
      </trkpt>
      <trkpt lat="31.78144900" lon="35.10364700">
        <ele>679.00000</ele>
        <time>2010-01-01T02:02:04Z</time>
      </trkpt>
      <trkpt lat="31.78200500" lon="35.10255200">
        <ele>673.00000</ele>
        <time>2010-01-01T02:02:47Z</time>
      </trkpt>
      <trkpt lat="31.78223800" lon="35.10189800">
        <ele>667.00000</ele>
        <time>2010-01-01T02:03:12Z</time>
      </trkpt>
      <trkpt lat="31.78222900" lon="35.10086800">
        <ele>661.00000</ele>
        <time>2010-01-01T02:03:47Z</time>
      </trkpt>
      <trkpt lat="31.78211000" lon="35.09940900">
        <ele>657.00000</ele>
        <time>2010-01-01T02:04:36Z</time>
      </trkpt>
      <trkpt lat="31.78199600" lon="35.09859900">
        <ele>659.00000</ele>
        <time>2010-01-01T02:05:04Z</time>
      </trkpt>
      <trkpt lat="31.78193200" lon="35.09754200">
        <ele>656.00000</ele>
        <time>2010-01-01T02:05:40Z</time>
      </trkpt>
      <trkpt lat="31.78226500" lon="35.09634000">
        <ele>649.00000</ele>
        <time>2010-01-01T02:06:23Z</time>
      </trkpt>
      <trkpt lat="31.78263900" lon="35.09486000">
        <ele>647.00000</ele>
        <time>2010-01-01T02:07:16Z</time>
      </trkpt>
      <trkpt lat="31.78269400" lon="35.09414600">
        <ele>647.00000</ele>
        <time>2010-01-01T02:07:40Z</time>
      </trkpt>
      <trkpt lat="31.78325000" lon="35.09211300">
        <ele>628.00000</ele>
        <time>2010-01-01T02:08:53Z</time>
      </trkpt>
      <trkpt lat="31.78321400" lon="35.08980100">
        <ele>612.00000</ele>
        <time>2010-01-01T02:10:12Z</time>
      </trkpt>
      <trkpt lat="31.78302700" lon="35.08876000">
        <ele>610.00000</ele>
        <time>2010-01-01T02:10:48Z</time>
      </trkpt>
      <trkpt lat="31.78277600" lon="35.08786400">
        <ele>605.00000</ele>
        <time>2010-01-01T02:11:20Z</time>
      </trkpt>
      <trkpt lat="31.78266600" lon="35.08724200">
        <ele>599.00000</ele>
        <time>2010-01-01T02:11:42Z</time>
      </trkpt>
      <trkpt lat="31.78253900" lon="35.08612600">
        <ele>589.00000</ele>
        <time>2010-01-01T02:12:20Z</time>
      </trkpt>
      <trkpt lat="31.78229300" lon="35.08521400">
        <ele>583.00000</ele>
        <time>2010-01-01T02:12:53Z</time>
      </trkpt>
      <trkpt lat="31.78224700" lon="35.08480700">
        <ele>581.00000</ele>
        <time>2010-01-01T02:13:07Z</time>
      </trkpt>
      <trkpt lat="31.78308600" lon="35.08235000">
        <ele>574.00000</ele>
        <time>2010-01-01T02:14:37Z</time>
      </trkpt>
      <trkpt lat="31.78324100" lon="35.08179200">
        <ele>567.00000</ele>
        <time>2010-01-01T02:14:57Z</time>
      </trkpt>
      <trkpt lat="31.78349600" lon="35.08118000">
        <ele>569.00000</ele>
        <time>2010-01-01T02:15:20Z</time>
      </trkpt>
      <trkpt lat="31.78352400" lon="35.08014000">
        <ele>567.00000</ele>
        <time>2010-01-01T02:15:55Z</time>
      </trkpt>
      <trkpt lat="31.78341400" lon="35.07979600">
        <ele>565.00000</ele>
        <time>2010-01-01T02:16:08Z</time>
      </trkpt>
      <trkpt lat="31.78323200" lon="35.07958200">
        <ele>565.00000</ele>
        <time>2010-01-01T02:16:18Z</time>
      </trkpt>
      <trkpt lat="31.78257500" lon="35.07923800">
        <ele>575.00000</ele>
        <time>2010-01-01T02:16:47Z</time>
      </trkpt>
      <trkpt lat="31.78232000" lon="35.07897000">
        <ele>578.00000</ele>
        <time>2010-01-01T02:17:00Z</time>
      </trkpt>
      <trkpt lat="31.78181800" lon="35.07813300">
        <ele>574.00000</ele>
        <time>2010-01-01T02:17:35Z</time>
      </trkpt>
      <trkpt lat="31.78140800" lon="35.07792900">
        <ele>577.00000</ele>
        <time>2010-01-01T02:17:53Z</time>
      </trkpt>
      <trkpt lat="31.78087900" lon="35.07788700">
        <ele>585.00000</ele>
        <time>2010-01-01T02:18:14Z</time>
      </trkpt>
      <trkpt lat="31.78006700" lon="35.07814400">
        <ele>588.00000</ele>
        <time>2010-01-01T02:18:48Z</time>
      </trkpt>
      <trkpt lat="31.77968400" lon="35.07846600">
        <ele>597.00000</ele>
        <time>2010-01-01T02:19:07Z</time>
      </trkpt>
      <trkpt lat="31.77929200" lon="35.07868100">
        <ele>600.00000</ele>
        <time>2010-01-01T02:19:24Z</time>
      </trkpt>
      <trkpt lat="31.77918300" lon="35.07864800">
        <ele>598.00000</ele>
        <time>2010-01-01T02:19:29Z</time>
      </trkpt>
      <trkpt lat="31.77910000" lon="35.07847700">
        <ele>596.00000</ele>
        <time>2010-01-01T02:19:35Z</time>
      </trkpt>
      <trkpt lat="31.77916400" lon="35.07796200">
        <ele>587.00000</ele>
        <time>2010-01-01T02:19:53Z</time>
      </trkpt>
      <trkpt lat="31.77918300" lon="35.07758600">
        <ele>583.00000</ele>
        <time>2010-01-01T02:20:06Z</time>
      </trkpt>
      <trkpt lat="31.77911900" lon="35.07731800">
        <ele>584.00000</ele>
        <time>2010-01-01T02:20:15Z</time>
      </trkpt>
      <trkpt lat="31.77889100" lon="35.07681400">
        <ele>592.00000</ele>
        <time>2010-01-01T02:20:35Z</time>
      </trkpt>
      <trkpt lat="31.77889100" lon="35.07644900">
        <ele>595.00000</ele>
        <time>2010-01-01T02:20:47Z</time>
      </trkpt>
      <trkpt lat="31.77959300" lon="35.07567600">
        <ele>590.00000</ele>
        <time>2010-01-01T02:21:26Z</time>
      </trkpt>
      <trkpt lat="31.77980300" lon="35.07494700">
        <ele>596.00000</ele>
        <time>2010-01-01T02:21:52Z</time>
      </trkpt>
      <trkpt lat="31.77982100" lon="35.07450700">
        <ele>595.00000</ele>
        <time>2010-01-01T02:22:07Z</time>
      </trkpt>
      <trkpt lat="31.77973000" lon="35.07411000">
        <ele>597.00000</ele>
        <time>2010-01-01T02:22:21Z</time>
      </trkpt>
      <trkpt lat="31.77939200" lon="35.07361700">
        <ele>602.00000</ele>
        <time>2010-01-01T02:22:42Z</time>
      </trkpt>
      <trkpt lat="31.77939200" lon="35.07291900">
        <ele>601.00000</ele>
        <time>2010-01-01T02:23:06Z</time>
      </trkpt>
      <trkpt lat="31.77948400" lon="35.07237200">
        <ele>598.00000</ele>
        <time>2010-01-01T02:23:25Z</time>
      </trkpt>
      <trkpt lat="31.77946500" lon="35.07198600">
        <ele>600.00000</ele>
        <time>2010-01-01T02:23:38Z</time>
      </trkpt>
      <trkpt lat="31.77942900" lon="35.07143900">
        <ele>605.00000</ele>
        <time>2010-01-01T02:23:57Z</time>
      </trkpt>
      <trkpt lat="31.77952000" lon="35.07112700">
        <ele>605.00000</ele>
        <time>2010-01-01T02:24:08Z</time>
      </trkpt>
      <trkpt lat="31.77969300" lon="35.07083800">
        <ele>602.00000</ele>
        <time>2010-01-01T02:24:20Z</time>
      </trkpt>
      <trkpt lat="31.78019500" lon="35.06995800">
        <ele>602.00000</ele>
        <time>2010-01-01T02:24:56Z</time>
      </trkpt>
      <trkpt lat="31.78039600" lon="35.06876700">
        <ele>605.00000</ele>
        <time>2010-01-01T02:25:38Z</time>
      </trkpt>
      <trkpt lat="31.78033200" lon="35.06833800">
        <ele>609.00000</ele>
        <time>2010-01-01T02:25:53Z</time>
      </trkpt>
      <trkpt lat="31.78019500" lon="35.06800500">
        <ele>616.00000</ele>
        <time>2010-01-01T02:26:05Z</time>
      </trkpt>
      <trkpt lat="31.78015800" lon="35.06759800">
        <ele>619.00000</ele>
        <time>2010-01-01T02:26:19Z</time>
      </trkpt>
      <trkpt lat="31.78024100" lon="35.06737200">
        <ele>618.00000</ele>
        <time>2010-01-01T02:26:27Z</time>
      </trkpt>
      <trkpt lat="31.78071500" lon="35.06669600">
        <ele>616.00000</ele>
        <time>2010-01-01T02:26:57Z</time>
      </trkpt>
      <trkpt lat="31.78107000" lon="35.06603100">
        <ele>611.00000</ele>
        <time>2010-01-01T02:27:24Z</time>
      </trkpt>
      <trkpt lat="31.78108900" lon="35.06563400">
        <ele>612.00000</ele>
        <time>2010-01-01T02:27:37Z</time>
      </trkpt>
      <trkpt lat="31.78107000" lon="35.06491500">
        <ele>613.00000</ele>
        <time>2010-01-01T02:28:02Z</time>
      </trkpt>
      <trkpt lat="31.78104300" lon="35.06395000">
        <ele>607.00000</ele>
        <time>2010-01-01T02:28:35Z</time>
      </trkpt>
      <trkpt lat="31.78097000" lon="35.06373500">
        <ele>604.00000</ele>
        <time>2010-01-01T02:28:43Z</time>
      </trkpt>
      <trkpt lat="31.78081500" lon="35.06369200">
        <ele>604.00000</ele>
        <time>2010-01-01T02:28:49Z</time>
      </trkpt>
      <trkpt lat="31.78045000" lon="35.06380000">
        <ele>605.00000</ele>
        <time>2010-01-01T02:29:04Z</time>
      </trkpt>
      <trkpt lat="31.77977500" lon="35.06429300">
        <ele>616.00000</ele>
        <time>2010-01-01T02:29:36Z</time>
      </trkpt>
      <trkpt lat="31.77941100" lon="35.06445400">
        <ele>618.00000</ele>
        <time>2010-01-01T02:29:51Z</time>
      </trkpt>
      <trkpt lat="31.77903700" lon="35.06460400">
        <ele>622.00000</ele>
        <time>2010-01-01T02:30:07Z</time>
      </trkpt>
      <trkpt lat="31.77898200" lon="35.06449700">
        <ele>621.00000</ele>
        <time>2010-01-01T02:30:12Z</time>
      </trkpt>
      <trkpt lat="31.77898200" lon="35.06408900">
        <ele>616.00000</ele>
        <time>2010-01-01T02:30:25Z</time>
      </trkpt>
      <trkpt lat="31.77911900" lon="35.06374600">
        <ele>612.00000</ele>
        <time>2010-01-01T02:30:38Z</time>
      </trkpt>
      <trkpt lat="31.77937400" lon="35.06294100">
        <ele>608.00000</ele>
        <time>2010-01-01T02:31:08Z</time>
      </trkpt>
      <trkpt lat="31.77975700" lon="35.06229800">
        <ele>599.00000</ele>
        <time>2010-01-01T02:31:34Z</time>
      </trkpt>
      <trkpt lat="31.78025900" lon="35.06105300">
        <ele>592.00000</ele>
        <time>2010-01-01T02:32:21Z</time>
      </trkpt>
      <trkpt lat="31.78041400" lon="35.05966900">
        <ele>591.00000</ele>
        <time>2010-01-01T02:33:09Z</time>
      </trkpt>
      <trkpt lat="31.78044100" lon="35.05929400">
        <ele>589.00000</ele>
        <time>2010-01-01T02:33:21Z</time>
      </trkpt>
      <trkpt lat="31.78036800" lon="35.05861800">
        <ele>584.00000</ele>
        <time>2010-01-01T02:33:45Z</time>
      </trkpt>
      <trkpt lat="31.78029500" lon="35.05831700">
        <ele>582.00000</ele>
        <time>2010-01-01T02:33:55Z</time>
      </trkpt>
      <trkpt lat="31.78008500" lon="35.05819900">
        <ele>584.00000</ele>
        <time>2010-01-01T02:34:05Z</time>
      </trkpt>
      <trkpt lat="31.77976600" lon="35.05810300">
        <ele>585.00000</ele>
        <time>2010-01-01T02:34:18Z</time>
      </trkpt>
      <trkpt lat="31.77923700" lon="35.05819900">
        <ele>592.00000</ele>
        <time>2010-01-01T02:34:39Z</time>
      </trkpt>
      <trkpt lat="31.77905500" lon="35.05811300">
        <ele>594.00000</ele>
        <time>2010-01-01T02:34:47Z</time>
      </trkpt>
      <trkpt lat="31.77906400" lon="35.05793100">
        <ele>593.00000</ele>
        <time>2010-01-01T02:34:53Z</time>
      </trkpt>
      <trkpt lat="31.78028600" lon="35.05523800">
        <ele>586.00000</ele>
        <time>2010-01-01T02:36:37Z</time>
      </trkpt>
      <trkpt lat="31.78183700" lon="35.05533500">
        <ele>570.00000</ele>
        <time>2010-01-01T02:37:39Z</time>
      </trkpt>
      <trkpt lat="31.78221000" lon="35.05522700">
        <ele>564.00000</ele>
        <time>2010-01-01T02:37:55Z</time>
      </trkpt>
      <trkpt lat="31.78242900" lon="35.05504500">
        <ele>563.00000</ele>
        <time>2010-01-01T02:38:05Z</time>
      </trkpt>
      <trkpt lat="31.78255700" lon="35.05484100">
        <ele>561.00000</ele>
        <time>2010-01-01T02:38:14Z</time>
      </trkpt>
      <trkpt lat="31.78273900" lon="35.05398300">
        <ele>559.00000</ele>
        <time>2010-01-01T02:38:44Z</time>
      </trkpt>
      <trkpt lat="31.78305900" lon="35.05308200">
        <ele>548.00000</ele>
        <time>2010-01-01T02:39:17Z</time>
      </trkpt>
      <trkpt lat="31.78315000" lon="35.05024900">
        <ele>521.00000</ele>
        <time>2010-01-01T02:40:54Z</time>
      </trkpt>
      <trkpt lat="31.78310400" lon="35.04973400">
        <ele>517.00000</ele>
        <time>2010-01-01T02:41:12Z</time>
      </trkpt>
      <trkpt lat="31.78279400" lon="35.04889700">
        <ele>520.00000</ele>
        <time>2010-01-01T02:41:43Z</time>
      </trkpt>
      <trkpt lat="31.78260300" lon="35.04785700">
        <ele>517.00000</ele>
        <time>2010-01-01T02:42:19Z</time>
      </trkpt>
      <trkpt lat="31.78265700" lon="35.04679400">
        <ele>508.00000</ele>
        <time>2010-01-01T02:42:55Z</time>
      </trkpt>
      <trkpt lat="31.78290400" lon="35.04540000">
        <ele>491.00000</ele>
        <time>2010-01-01T02:43:43Z</time>
      </trkpt>
      <trkpt lat="31.78286700" lon="35.04501300">
        <ele>490.00000</ele>
        <time>2010-01-01T02:43:57Z</time>
      </trkpt>
      <trkpt lat="31.78252100" lon="35.04412300">
        <ele>496.00000</ele>
        <time>2010-01-01T02:44:30Z</time>
      </trkpt>
      <trkpt lat="31.78242000" lon="35.04380100">
        <ele>496.00000</ele>
        <time>2010-01-01T02:44:42Z</time>
      </trkpt>
      <trkpt lat="31.78237500" lon="35.04332900">
        <ele>491.00000</ele>
        <time>2010-01-01T02:44:58Z</time>
      </trkpt>
      <trkpt lat="31.78233800" lon="35.04244900">
        <ele>473.00000</ele>
        <time>2010-01-01T02:45:28Z</time>
      </trkpt>
      <trkpt lat="31.78229300" lon="35.04217000">
        <ele>466.00000</ele>
        <time>2010-01-01T02:45:38Z</time>
      </trkpt>
      <trkpt lat="31.78219200" lon="35.04204200">
        <ele>465.00000</ele>
        <time>2010-01-01T02:45:43Z</time>
      </trkpt>
      <trkpt lat="31.78161800" lon="35.04188100">
        <ele>480.00000</ele>
        <time>2010-01-01T02:46:07Z</time>
      </trkpt>
      <trkpt lat="31.78147200" lon="35.04145100">
        <ele>464.00000</ele>
        <time>2010-01-01T02:46:23Z</time>
      </trkpt>
      <trkpt lat="31.78120700" lon="35.04125800">
        <ele>463.00000</ele>
        <time>2010-01-01T02:46:35Z</time>
      </trkpt>
      <trkpt lat="31.78015800" lon="35.04062500">
        <ele>460.00000</ele>
        <time>2010-01-01T02:47:23Z</time>
      </trkpt>
      <trkpt lat="31.77984800" lon="35.04055000">
        <ele>465.00000</ele>
        <time>2010-01-01T02:47:35Z</time>
      </trkpt>
      <trkpt lat="31.77963900" lon="35.04034600">
        <ele>461.00000</ele>
        <time>2010-01-01T02:47:46Z</time>
      </trkpt>
      <trkpt lat="31.77951100" lon="35.04020700">
        <ele>458.00000</ele>
        <time>2010-01-01T02:47:53Z</time>
      </trkpt>
      <trkpt lat="31.77935600" lon="35.04007800">
        <ele>456.00000</ele>
        <time>2010-01-01T02:48:01Z</time>
      </trkpt>
      <trkpt lat="31.77904600" lon="35.03990700">
        <ele>462.00000</ele>
        <time>2010-01-01T02:48:14Z</time>
      </trkpt>
      <trkpt lat="31.77892700" lon="35.03967000">
        <ele>461.00000</ele>
        <time>2010-01-01T02:48:24Z</time>
      </trkpt>
      <trkpt lat="31.77856200" lon="35.03840400">
        <ele>447.00000</ele>
        <time>2010-01-01T02:49:09Z</time>
      </trkpt>
      <trkpt lat="31.77815200" lon="35.03739600">
        <ele>442.00000</ele>
        <time>2010-01-01T02:49:47Z</time>
      </trkpt>
      <trkpt lat="31.77785100" lon="35.03639800">
        <ele>429.00000</ele>
        <time>2010-01-01T02:50:23Z</time>
      </trkpt>
      <trkpt lat="31.77736800" lon="35.03575400">
        <ele>432.00000</ele>
        <time>2010-01-01T02:50:52Z</time>
      </trkpt>
      <trkpt lat="31.77720300" lon="35.03522900">
        <ele>423.00000</ele>
        <time>2010-01-01T02:51:12Z</time>
      </trkpt>
      <trkpt lat="31.77712100" lon="35.03472400">
        <ele>413.00000</ele>
        <time>2010-01-01T02:51:29Z</time>
      </trkpt>
      <trkpt lat="31.77698500" lon="35.03401600">
        <ele>400.00000</ele>
        <time>2010-01-01T02:51:54Z</time>
      </trkpt>
      <trkpt lat="31.77675600" lon="35.03378000">
        <ele>400.00000</ele>
        <time>2010-01-01T02:52:06Z</time>
      </trkpt>
      <trkpt lat="31.77601800" lon="35.03354400">
        <ele>400.00000</ele>
        <time>2010-01-01T02:52:37Z</time>
      </trkpt>
      <trkpt lat="31.77578100" lon="35.03334000">
        <ele>392.00000</ele>
        <time>2010-01-01T02:52:48Z</time>
      </trkpt>
      <trkpt lat="31.77532500" lon="35.03324400">
        <ele>382.00000</ele>
        <time>2010-01-01T02:53:07Z</time>
      </trkpt>
      <trkpt lat="31.77493200" lon="35.03349100">
        <ele>387.00000</ele>
        <time>2010-01-01T02:53:25Z</time>
      </trkpt>
      <trkpt lat="31.77464000" lon="35.03393000">
        <ele>407.00000</ele>
        <time>2010-01-01T02:53:44Z</time>
      </trkpt>
      <trkpt lat="31.77450400" lon="35.03390900">
        <ele>410.00000</ele>
        <time>2010-01-01T02:53:49Z</time>
      </trkpt>
      <trkpt lat="31.77445800" lon="35.03357600">
        <ele>405.00000</ele>
        <time>2010-01-01T02:54:01Z</time>
      </trkpt>
      <trkpt lat="31.77457700" lon="35.03290000">
        <ele>394.00000</ele>
        <time>2010-01-01T02:54:24Z</time>
      </trkpt>
      <trkpt lat="31.77474100" lon="35.03237500">
        <ele>386.00000</ele>
        <time>2010-01-01T02:54:43Z</time>
      </trkpt>
      <trkpt lat="31.77543400" lon="35.03211700">
        <ele>372.00000</ele>
        <time>2010-01-01T02:55:12Z</time>
      </trkpt>
      <trkpt lat="31.77566200" lon="35.03196700">
        <ele>370.00000</ele>
        <time>2010-01-01T02:55:23Z</time>
      </trkpt>
      <trkpt lat="31.77575300" lon="35.03206400">
        <ele>366.00000</ele>
        <time>2010-01-01T02:55:28Z</time>
      </trkpt>
      <trkpt lat="31.77562600" lon="35.03221400">
        <ele>365.00000</ele>
        <time>2010-01-01T02:55:35Z</time>
      </trkpt>
      <trkpt lat="31.77528800" lon="35.03235300">
        <ele>368.00000</ele>
        <time>2010-01-01T02:55:49Z</time>
      </trkpt>
      <trkpt lat="31.77523300" lon="35.03249300">
        <ele>364.00000</ele>
        <time>2010-01-01T02:55:54Z</time>
      </trkpt>
      <trkpt lat="31.77537900" lon="35.03252500">
        <ele>362.00000</ele>
        <time>2010-01-01T02:56:00Z</time>
      </trkpt>
      <trkpt lat="31.77596300" lon="35.03226800">
        <ele>359.00000</ele>
        <time>2010-01-01T02:56:25Z</time>
      </trkpt>
      <trkpt lat="31.77619100" lon="35.03200500">
        <ele>359.00000</ele>
        <time>2010-01-01T02:56:38Z</time>
      </trkpt>
      <trkpt lat="31.77630500" lon="35.03204200">
        <ele>357.00000</ele>
        <time>2010-01-01T02:56:43Z</time>
      </trkpt>
      <trkpt lat="31.77627300" lon="35.03230000">
        <ele>355.00000</ele>
        <time>2010-01-01T02:56:52Z</time>
      </trkpt>
      <trkpt lat="31.77641000" lon="35.03228900">
        <ele>354.00000</ele>
        <time>2010-01-01T02:56:57Z</time>
      </trkpt>
      <trkpt lat="31.77700300" lon="35.03187100">
        <ele>346.00000</ele>
        <time>2010-01-01T02:57:25Z</time>
      </trkpt>
      <trkpt lat="31.77717100" lon="35.03147400">
        <ele>345.00000</ele>
        <time>2010-01-01T02:57:40Z</time>
      </trkpt>
      <trkpt lat="31.77728500" lon="35.03116800">
        <ele>346.00000</ele>
        <time>2010-01-01T02:57:51Z</time>
      </trkpt>
      <trkpt lat="31.77745900" lon="35.03096900">
        <ele>342.00000</ele>
        <time>2010-01-01T02:58:01Z</time>
      </trkpt>
      <trkpt lat="31.77777300" lon="35.03068000">
        <ele>347.00000</ele>
        <time>2010-01-01T02:58:17Z</time>
      </trkpt>
      <trkpt lat="31.77811500" lon="35.02996100">
        <ele>343.00000</ele>
        <time>2010-01-01T02:58:45Z</time>
      </trkpt>
      <trkpt lat="31.77812900" lon="35.02902200">
        <ele>340.00000</ele>
        <time>2010-01-01T02:59:17Z</time>
      </trkpt>
      <trkpt lat="31.77818800" lon="35.02760100">
        <ele>331.00000</ele>
        <time>2010-01-01T03:00:05Z</time>
      </trkpt>
      <trkpt lat="31.77809300" lon="35.02745000">
        <ele>331.00000</ele>
        <time>2010-01-01T03:00:12Z</time>
      </trkpt>
      <trkpt lat="31.77749100" lon="35.02722000">
        <ele>326.00000</ele>
        <time>2010-01-01T03:00:37Z</time>
      </trkpt>
      <trkpt lat="31.77723500" lon="35.02695700">
        <ele>327.00000</ele>
        <time>2010-01-01T03:00:51Z</time>
      </trkpt>
      <trkpt lat="31.77713000" lon="35.02667800">
        <ele>323.00000</ele>
        <time>2010-01-01T03:01:01Z</time>
      </trkpt>
      <trkpt lat="31.77712600" lon="35.02644200">
        <ele>323.00000</ele>
        <time>2010-01-01T03:01:09Z</time>
      </trkpt>
      <trkpt lat="31.77726700" lon="35.02618400">
        <ele>318.00000</ele>
        <time>2010-01-01T03:01:20Z</time>
      </trkpt>
      <trkpt lat="31.77768700" lon="35.02579800">
        <ele>310.00000</ele>
        <time>2010-01-01T03:01:41Z</time>
      </trkpt>
      <trkpt lat="31.77799700" lon="35.02462900">
        <ele>312.00000</ele>
        <time>2010-01-01T03:02:23Z</time>
      </trkpt>
      <trkpt lat="31.77860800" lon="35.02376000">
        <ele>307.00000</ele>
        <time>2010-01-01T03:03:01Z</time>
      </trkpt>
      <trkpt lat="31.77892700" lon="35.02306200">
        <ele>306.00000</ele>
        <time>2010-01-01T03:03:28Z</time>
      </trkpt>
      <trkpt lat="31.77932400" lon="35.02212300">
        <ele>302.00000</ele>
        <time>2010-01-01T03:04:04Z</time>
      </trkpt>
      <trkpt lat="31.77985700" lon="35.02116900">
        <ele>297.00000</ele>
        <time>2010-01-01T03:04:42Z</time>
      </trkpt>
      <trkpt lat="31.78052300" lon="35.01990800">
        <ele>290.00000</ele>
        <time>2010-01-01T03:05:33Z</time>
      </trkpt>
      <trkpt lat="31.78056900" lon="35.01951100">
        <ele>289.00000</ele>
        <time>2010-01-01T03:05:47Z</time>
      </trkpt>
      <trkpt lat="31.78046400" lon="35.01893200">
        <ele>289.00000</ele>
        <time>2010-01-01T03:06:07Z</time>
      </trkpt>
      <trkpt lat="31.78000800" lon="35.01798700">
        <ele>285.00000</ele>
        <time>2010-01-01T03:06:44Z</time>
      </trkpt>
      <trkpt lat="31.77937900" lon="35.01777800">
        <ele>283.00000</ele>
        <time>2010-01-01T03:07:10Z</time>
      </trkpt>
      <trkpt lat="31.77905900" lon="35.01759000">
        <ele>279.00000</ele>
        <time>2010-01-01T03:07:24Z</time>
      </trkpt>
      <trkpt lat="31.77883100" lon="35.01723100">
        <ele>278.00000</ele>
        <time>2010-01-01T03:07:39Z</time>
      </trkpt>
      <trkpt lat="31.77862600" lon="35.01684000">
        <ele>276.00000</ele>
        <time>2010-01-01T03:07:55Z</time>
      </trkpt>
      <trkpt lat="31.77849900" lon="35.01654400">
        <ele>273.00000</ele>
        <time>2010-01-01T03:08:06Z</time>
      </trkpt>
      <trkpt lat="31.77846700" lon="35.01611500">
        <ele>269.00000</ele>
        <time>2010-01-01T03:08:21Z</time>
      </trkpt>
      <trkpt lat="31.77816100" lon="35.01587900">
        <ele>267.00000</ele>
        <time>2010-01-01T03:08:36Z</time>
      </trkpt>
      <trkpt lat="31.77770500" lon="35.01603500">
        <ele>275.00000</ele>
        <time>2010-01-01T03:08:55Z</time>
      </trkpt>
    </trkseg>
  </trk>
</gpx>

